Auvergne, Arkansas
Current Conditions -  °F | °C
As of 7:56 AM on Saturday 25 Oct 2014 (Local Time) from KM19 Reporting Station
Haze Haze  
Wind Chill: 13°   Ceiling: Unl
Heat Index: 13°   Visibility: 4mi
Dew Point: 13°   Wind: 6mph
Humidity: 96%   Direction: 200°SSW
Pressure: 30.09"   Gusts: NA
Location:  35.5678°N, 91.2073°W
Report Text: KM19 251256Z AUTO 20005KT 4SM BR CLR 13/13 A3009 RMK AO2 T01330127 SLP187
Loading
Personal Weather Stations






























Interactive Weather Map
Tropical Storm Tracking
New forecast layout! Learn more

10-Day Weather Forecast

Advertisements
Track Severe Weather on mobile